sensor_id;sensor_type;location;lat;lon;timestamp;pressure;altitude;pressure_sealevel;temperature;humidity
51081;BME280;37130;55.670;37.596;2023-02-20T00:01:34;97421.47;;;-6.22;99.92
51081;BME280;37130;55.670;37.596;2023-02-20T00:04:02;97407.75;;;-6.23;100.00
51081;BME280;37130;55.670;37.596;2023-02-20T00:06:29;97302.44;;;-6.92;100.00
51081;BME280;37130;55.670;37.596;2023-02-20T00:08:56;97412.06;;;-6.26;100.00
51081;BME280;37130;55.670;37.596;2023-02-20T00:11:24;97412.19;;;-6.32;99.54
51081;BME280;37130;55.670;37.596;2023-02-20T00:13:51;97407.13;;;-6.38;99.69
51081;BME280;37130;55.670;37.596;2023-02-20T00:16:19;97407.13;;;-6.38;99.43
51081;BME280;37130;55.670;37.596;2023-02-20T00:18:46;97402.09;;;-6.46;100.00
51081;BME280;37130;55.670;37.596;2023-02-20T00:21:14;97413.91;;;-6.34;99.65
51081;BME280;37130;55.670;37.596;2023-02-20T00:23:41;97407.97;;;-6.38;99.87
51081;BME280;37130;55.670;37.596;2023-02-20T00:26:10;97405.41;;;-6.36;100.00
51081;BME280;37130;55.670;37.596;2023-02-20T00:28:41;97415.59;;;-6.30;100.00
51081;BME280;37130;55.670;37.596;2023-02-20T00:31:14;97414.69;;;-6.28;100.00
51081;BME280;37130;55.670;37.596;2023-02-20T00:33:43;97299.84;;;-6.92;100.00
51081;BME280;37130;55.670;37.596;2023-02-20T00:36:18;97412.00;;;-6.22;100.00
51081;BME280;37130;55.670;37.596;2023-02-20T00:38:46;97298.13;;;-6.92;100.00
51081;BME280;37130;55.670;37.596;2023-02-20T00:41:14;97270.94;;;-7.07;100.00
51081;BME280;37130;55.670;37.596;2023-02-20T00:43:41;97401.63;;;-6.15;100.00
51081;BME280;37130;55.670;37.596;2023-02-20T00:46:10;97409.97;;;-6.03;100.00
51081;BME280;37130;55.670;37.596;2023-02-20T00:48:39;97403.06;;;-6.01;100.00
51081;BME280;37130;55.670;37.596;2023-02-20T00:51:26;97404.84;;;-6.04;100.00
51081;BME280;37130;55.670;37.596;2023-02-20T00:53:54;97400.56;;;-6.05;99.89
51081;BME280;37130;55.670;37.596;2023-02-20T00:56:22;97312.22;;;-6.60;100.00
51081;BME280;37130;55.670;37.596;2023-02-20T00:58:49;97402.97;;;-5.94;100.00
51081;BME280;37130;55.670;37.596;2023-02-20T01:01:17;97406.41;;;-5.94;100.00
51081;BME280;37130;55.670;37.596;2023-02-20T01:03:45;97287.34;;;-6.61;100.00
51081;BME280;37130;55.670;37.596;2023-02-20T01:06:14;97391.09;;;-6.03;100.00
51081;BME280;37130;55.670;37.596;2023-02-20T01:08:42;97406.41;;;-5.96;100.00
51081;BME280;37130;55.670;37.596;2023-02-20T01:11:10;97403.00;;;-5.96;100.00
51081;BME280;37130;55.670;37.596;2023-02-20T01:13:37;97399.50;;;-5.93;100.00
51081;BME280;37130;55.670;37.596;2023-02-20T01:16:06;97400.25;;;-5.88;100.00
51081;BME280;37130;55.670;37.596;2023-02-20T01:18:34;97289.78;;;-6.52;100.00
51081;BME280;37130;55.670;37.596;2023-02-20T01:21:02;97304.28;;;-6.48;100.00
51081;BME280;37130;55.670;37.596;2023-02-20T01:23:30;97407.31;;;-5.98;100.00
51081;BME280;37130;55.670;37.596;2023-02-20T01:25:58;97273.16;;;-6.84;99.44
51081;BME280;37130;55.670;37.596;2023-02-20T01:28:27;97394.75;;;-6.17;100.00
51081;BME280;37130;55.670;37.596;2023-02-20T01:30:55;97409.41;;;-6.20;99.30
51081;BME280;37130;55.670;37.596;2023-02-20T01:33:22;97333.91;;;-6.75;99.56
51081;BME280;37130;55.670;37.596;2023-02-20T01:35:50;97401.91;;;-6.34;99.21
51081;BME280;37130;55.670;37.596;2023-02-20T01:38:20;97418.09;;;-6.27;99.28
51081;BME280;37130;55.670;37.596;2023-02-20T01:40:48;97421.59;;;-6.30;100.00
51081;BME280;37130;55.670;37.596;2023-02-20T01:43:16;97410.50;;;-6.33;99.87
51081;BME280;37130;55.670;37.596;2023-02-20T01:45:44;97413.06;;;-6.33;100.00
51081;BME280;37130;55.670;37.596;2023-02-20T01:48:23;97409.72;;;-6.40;99.87
51081;BME280;37130;55.670;37.596;2023-02-20T01:50:55;97412.28;;;-6.40;98.99
51081;BME280;37130;55.670;37.596;2023-02-20T01:53:27;97302.69;;;-7.11;99.15
51081;BME280;37130;55.670;37.596;2023-02-20T01:56:01;97419.28;;;-6.47;99.01
51081;BME280;37130;55.670;37.596;2023-02-20T01:58:34;97415.00;;;-6.48;98.76
51081;BME280;37130;55.670;37.596;2023-02-20T02:01:04;97428.63;;;-6.41;99.52
51081;BME280;37130;55.670;37.596;2023-02-20T02:03:35;97377.38;;;-6.58;98.77
51081;BME280;37130;55.670;37.596;2023-02-20T02:06:05;97413.19;;;-6.43;99.04
51081;BME280;37130;55.670;37.596;2023-02-20T02:08:39;97330.06;;;-7.05;98.67
51081;BME280;37130;55.670;37.596;2023-02-20T02:11:16;97415.94;;;-6.52;98.71
51081;BME280;37130;55.670;37.596;2023-02-20T02:13:45;97421.91;;;-6.51;98.46
51081;BME280;37130;55.670;37.596;2023-02-20T02:22:06;97429.50;;;-6.42;99.46
51081;BME280;37130;55.670;37.596;2023-02-20T02:28:00;97435.56;;;-6.46;97.75
51081;BME280;37130;55.670;37.596;2023-02-20T02:39:10;97448.72;;;-6.65;98.30
51081;BME280;37130;55.670;37.596;2023-02-20T02:44:57;97441.78;;;-6.59;98.41
51081;BME280;37130;55.670;37.596;2023-02-20T02:47:36;97450.28;;;-6.56;98.99
51081;BME280;37130;55.670;37.596;2023-02-20T02:50:14;97447.94;;;-6.70;97.78
51081;BME280;37130;55.670;37.596;2023-02-20T02:52:45;97448.50;;;-6.52;98.63
51081;BME280;37130;55.670;37.596;2023-02-20T02:55:23;97445.94;;;-6.49;97.94
51081;BME280;37130;55.670;37.596;2023-02-20T02:57:53;97450.13;;;-6.44;98.62
51081;BME280;37130;55.670;37.596;2023-02-20T03:03:28;97421.19;;;-6.61;98.58
51081;BME280;37130;55.670;37.596;2023-02-20T03:06:03;97447.72;;;-6.56;98.63
51081;BME280;37130;55.670;37.596;2023-02-20T03:08:43;97454.59;;;-6.55;97.70
51081;BME280;37130;55.670;37.596;2023-02-20T03:11:14;97459.69;;;-6.53;98.35
51081;BME280;37130;55.670;37.596;2023-02-20T03:19:41;97459.22;;;-6.81;97.55
51081;BME280;37130;55.670;37.596;2023-02-20T03:22:23;97460.19;;;-6.89;97.86
51081;BME280;37130;55.670;37.596;2023-02-20T03:24:56;97465.41;;;-6.93;97.69
51081;BME280;37130;55.670;37.596;2023-02-20T03:30:16;97458.66;;;-7.03;96.79
51081;BME280;37130;55.670;37.596;2023-02-20T03:32:48;97450.28;;;-7.19;96.93
51081;BME280;37130;55.670;37.596;2023-02-20T03:35:39;97452.94;;;-7.25;96.85
51081;BME280;37130;55.670;37.596;2023-02-20T03:38:30;97391.81;;;-7.78;96.61
51081;BME280;37130;55.670;37.596;2023-02-20T03:41:21;97353.53;;;-8.01;96.53
51081;BME280;37130;55.670;37.596;2023-02-20T03:44:12;97454.91;;;-7.49;97.08
51081;BME280;37130;55.670;37.596;2023-02-20T03:46:43;97457.47;;;-7.49;97.24
51081;BME280;37130;55.670;37.596;2023-02-20T03:49:18;97453.22;;;-7.52;96.68
51081;BME280;37130;55.670;37.596;2023-02-20T03:51:47;97457.44;;;-7.47;96.88
51081;BME280;37130;55.670;37.596;2023-02-20T03:54:35;97463.38;;;-7.41;97.47
51081;BME280;37130;55.670;37.596;2023-02-20T03:57:25;97459.09;;;-7.40;97.04
51081;BME280;37130;55.670;37.596;2023-02-20T04:00:16;97469.31;;;-7.36;97.21
51081;BME280;37130;55.670;37.596;2023-02-20T04:02:52;97457.31;;;-7.35;97.44
51081;BME280;37130;55.670;37.596;2023-02-20T04:05:30;97479.56;;;-7.33;96.75
51081;BME280;37130;55.670;37.596;2023-02-20T04:08:00;97463.25;;;-7.30;96.79
51081;BME280;37130;55.670;37.596;2023-02-20T04:10:41;97468.38;;;-7.27;97.11
51081;BME280;37130;55.670;37.596;2023-02-20T04:13:12;97464.94;;;-7.28;97.07
51081;BME280;37130;55.670;37.596;2023-02-20T04:15:44;97455.59;;;-7.35;97.01
51081;BME280;37130;55.670;37.596;2023-02-20T04:18:18;97415.72;;;-7.71;96.86
51081;BME280;37130;55.670;37.596;2023-02-20T04:20:51;97477.75;;;-7.23;96.93
51081;BME280;37130;55.670;37.596;2023-02-20T04:23:41;97470.94;;;-7.27;96.71
51081;BME280;37130;55.670;37.596;2023-02-20T04:26:16;97469.25;;;-7.30;96.49
51081;BME280;37130;55.670;37.596;2023-02-20T04:28:47;97482.09;;;-7.28;96.32
51081;BME280;37130;55.670;37.596;2023-02-20T04:31:16;97475.25;;;-7.29;96.33
51081;BME280;37130;55.670;37.596;2023-02-20T04:33:46;97366.38;;;-8.01;95.88
51081;BME280;37130;55.670;37.596;2023-02-20T04:36:22;97478.66;;;-7.29;95.81
51081;BME280;37130;55.670;37.596;2023-02-20T04:38:51;97478.66;;;-7.29;96.55
51081;BME280;37130;55.670;37.596;2023-02-20T04:41:24;97476.91;;;-7.27;96.75
51081;BME280;37130;55.670;37.596;2023-02-20T04:43:53;97447.16;;;-7.46;96.53
51081;BME280;37130;55.670;37.596;2023-02-20T04:46:41;97345.88;;;-8.05;96.32
51081;BME280;37130;55.670;37.596;2023-02-20T04:49:08;97487.91;;;-7.12;95.81
51081;BME280;37130;55.670;37.596;2023-02-20T04:51:37;97369.59;;;-7.82;96.13
51081;BME280;37130;55.670;37.596;2023-02-20T04:54:05;97471.53;;;-7.05;96.26
51081;BME280;37130;55.670;37.596;2023-02-20T04:56:33;97470.63;;;-6.99;96.55
51081;BME280;37130;55.670;37.596;2023-02-20T04:59:01;97431.56;;;-7.32;95.65
51081;BME280;37130;55.670;37.596;2023-02-20T05:01:29;97481.81;;;-7.05;95.98
51081;BME280;37130;55.670;37.596;2023-02-20T05:03:57;97256.34;;;-8.38;96.13
51081;BME280;37130;55.670;37.596;2023-02-20T05:06:24;97489.44;;;-6.97;96.11
51081;BME280;37130;55.670;37.596;2023-02-20T05:09:06;97490.31;;;-6.98;96.06
51081;BME280;37130;55.670;37.596;2023-02-20T05:11:36;97495.44;;;-6.95;95.80
51081;BME280;37130;55.670;37.596;2023-02-20T05:14:04;97487.66;;;-6.92;95.65
51081;BME280;37130;55.670;37.596;2023-02-20T05:16:32;97411.88;;;-7.36;95.68
51081;BME280;37130;55.670;37.596;2023-02-20T05:19:00;97459.47;;;-7.00;95.92
51081;BME280;37130;55.670;37.596;2023-02-20T05:21:28;97497.81;;;-6.78;95.50
51081;BME280;37130;55.670;37.596;2023-02-20T05:24:13;97498.66;;;-6.79;95.40
51081;BME280;37130;55.670;37.596;2023-02-20T05:26:41;97477.38;;;-6.92;94.82
51081;BME280;37130;55.670;37.596;2023-02-20T05:29:09;97485.00;;;-6.85;95.58
51081;BME280;37130;55.670;37.596;2023-02-20T05:31:39;97418.47;;;-7.12;95.90
51081;BME280;37130;55.670;37.596;2023-02-20T05:34:07;97460.16;;;-6.86;95.76
51081;BME280;37130;55.670;37.596;2023-02-20T05:36:35;97375.09;;;-7.38;95.73
51081;BME280;37130;55.670;37.596;2023-02-20T05:39:03;97488.19;;;-6.66;95.38
51081;BME280;37130;55.670;37.596;2023-02-20T05:41:31;97489.06;;;-6.67;94.35
51081;BME280;37130;55.670;37.596;2023-02-20T05:43:59;97437.19;;;-7.02;94.46
51081;BME280;37130;55.670;37.596;2023-02-20T05:46:26;97512.16;;;-6.62;94.72
51081;BME280;37130;55.670;37.596;2023-02-20T05:48:54;97506.94;;;-6.56;94.02
51081;BME280;37130;55.670;37.596;2023-02-20T05:51:27;97507.72;;;-6.51;95.27
51081;BME280;37130;55.670;37.596;2023-02-20T05:53:55;97497.41;;;-6.49;93.89
51081;BME280;37130;55.670;37.596;2023-02-20T05:56:23;97501.69;;;-6.50;94.84
51081;BME280;37130;55.670;37.596;2023-02-20T05:58:51;97500.94;;;-6.55;94.34
51081;BME280;37130;55.670;37.596;2023-02-20T06:01:20;97491.53;;;-6.59;93.99
51081;BME280;37130;55.670;37.596;2023-02-20T06:03:49;97396.03;;;-7.02;94.61
51081;BME280;37130;55.670;37.596;2023-02-20T06:06:18;97399.50;;;-7.02;94.67
51081;BME280;37130;55.670;37.596;2023-02-20T06:08:46;97500.59;;;-6.32;94.39
51081;BME280;37130;55.670;37.596;2023-02-20T06:11:15;97518.44;;;-6.21;94.18
51081;BME280;37130;55.670;37.596;2023-02-20T06:13:44;97511.56;;;-6.18;94.24
51081;BME280;37130;55.670;37.596;2023-02-20T06:16:12;97509.66;;;-6.08;93.20
51081;BME280;37130;55.670;37.596;2023-02-20T06:18:41;97514.69;;;-5.99;93.19
51081;BME280;37130;55.670;37.596;2023-02-20T06:21:09;97521.53;;;-5.98;93.97
51081;BME280;37130;55.670;37.596;2023-02-20T06:23:37;97518.88;;;-5.93;93.16
51081;BME280;37130;55.670;37.596;2023-02-20T06:26:06;97530.75;;;-5.84;93.80
51081;BME280;37130;55.670;37.596;2023-02-20T06:28:34;97522.22;;;-5.86;92.87
51081;BME280;37130;55.670;37.596;2023-02-20T06:31:01;97519.78;;;-5.96;93.28
51081;BME280;37130;55.670;37.596;2023-02-20T06:33:29;97526.66;;;-5.94;94.04
51081;BME280;37130;55.670;37.596;2023-02-20T06:35:56;97359.88;;;-6.92;92.76
51081;BME280;37130;55.670;37.596;2023-02-20T06:38:27;97535.75;;;-5.74;93.39
51081;BME280;37130;55.670;37.596;2023-02-20T06:40:54;97465.91;;;-6.11;92.83
51081;BME280;37130;55.670;37.596;2023-02-20T06:43:22;97516.00;;;-5.75;92.71
51081;BME280;37130;55.670;37.596;2023-02-20T06:45:49;97525.28;;;-5.66;92.51
51081;BME280;37130;55.670;37.596;2023-02-20T06:48:17;97495.44;;;-5.79;92.50
51081;BME280;37130;55.670;37.596;2023-02-20T06:50:44;97525.22;;;-5.61;93.51
51081;BME280;37130;55.670;37.596;2023-02-20T06:53:12;97447.94;;;-6.12;93.15
51081;BME280;37130;55.670;37.596;2023-02-20T06:55:39;97514.06;;;-5.62;93.13
51081;BME280;37130;55.670;37.596;2023-02-20T06:58:07;97534.56;;;-5.53;92.19
51081;BME280;37130;55.670;37.596;2023-02-20T07:00:37;97422.34;;;-6.23;92.88
51081;BME280;37130;55.670;37.596;2023-02-20T07:03:04;97537.84;;;-5.44;92.73
51081;BME280;37130;55.670;37.596;2023-02-20T07:05:32;97502.91;;;-5.62;91.80
51081;BME280;37130;55.670;37.596;2023-02-20T07:08:00;97548.84;;;-5.35;92.54
51081;BME280;37130;55.670;37.596;2023-02-20T07:10:28;97540.28;;;-5.37;91.66
51081;BME280;37130;55.670;37.596;2023-02-20T07:12:55;97537.91;;;-5.47;90.98
51081;BME280;37130;55.670;37.596;2023-02-20T07:15:23;97499.75;;;-5.80;91.12
51081;BME280;37130;55.670;37.596;2023-02-20T07:17:50;97520.13;;;-5.64;91.91
51081;BME280;37130;55.670;37.596;2023-02-20T07:20:18;97506.41;;;-5.66;91.30
51081;BME280;37130;55.670;37.596;2023-02-20T07:22:50;97542.00;;;-5.37;91.34
51081;BME280;37130;55.670;37.596;2023-02-20T07:25:17;97536.69;;;-5.28;91.41
51081;BME280;37130;55.670;37.596;2023-02-20T07:27:45;97558.81;;;-5.16;91.25
51081;BME280;37130;55.670;37.596;2023-02-20T07:30:13;97485.50;;;-5.49;91.33
51081;BME280;37130;55.670;37.596;2023-02-20T07:32:40;97549.06;;;-5.00;90.68
51081;BME280;37130;55.670;37.596;2023-02-20T07:35:08;97552.38;;;-4.92;90.26
51081;BME280;37130;55.670;37.596;2023-02-20T07:37:35;97557.56;;;-4.94;89.56
51081;BME280;37130;55.670;37.596;2023-02-20T07:40:03;97560.16;;;-4.94;89.82
51081;BME280;37130;55.670;37.596;2023-02-20T07:42:30;97542.84;;;-4.89;90.01
51081;BME280;37130;55.670;37.596;2023-02-20T07:45:17;97544.44;;;-4.81;89.56
51081;BME280;37130;55.670;37.596;2023-02-20T07:47:45;97453.44;;;-5.36;89.68
51081;BME280;37130;55.670;37.596;2023-02-20T07:50:14;97550.06;;;-4.63;89.46
51081;BME280;37130;55.670;37.596;2023-02-20T07:52:42;97555.25;;;-4.64;89.50
51081;BME280;37130;55.670;37.596;2023-02-20T07:55:15;97558.59;;;-4.57;89.36
51081;BME280;37130;55.670;37.596;2023-02-20T07:57:45;97527.81;;;-4.68;88.98
51081;BME280;37130;55.670;37.596;2023-02-20T08:00:16;97555.59;;;-4.37;89.02
51081;BME280;37130;55.670;37.596;2023-02-20T08:02:44;97559.72;;;-4.29;88.60
51081;BME280;37130;55.670;37.596;2023-02-20T08:05:12;97561.63;;;-4.38;88.01
51081;BME280;37130;55.670;37.596;2023-02-20T08:07:45;97476.88;;;-5.03;87.96
51081;BME280;37130;55.670;37.596;2023-02-20T08:10:14;97477.06;;;-5.13;88.17
51081;BME280;37130;55.670;37.596;2023-02-20T08:12:43;97390.19;;;-5.56;88.48
51081;BME280;37130;55.670;37.596;2023-02-20T08:15:10;97569.44;;;-4.40;88.25
51081;BME280;37130;55.670;37.596;2023-02-20T08:17:38;97586.69;;;-4.42;88.14
51081;BME280;37130;55.670;37.596;2023-02-20T08:20:17;97574.69;;;-4.45;88.28
51081;BME280;37130;55.670;37.596;2023-02-20T08:22:47;97570.44;;;-4.49;87.97
51081;BME280;37130;55.670;37.596;2023-02-20T08:25:16;97537.63;;;-4.86;87.83
51081;BME280;37130;55.670;37.596;2023-02-20T08:27:47;97570.88;;;-4.69;87.78
51081;BME280;37130;55.670;37.596;2023-02-20T08:30:26;97574.72;;;-4.90;87.63
51081;BME280;37130;55.670;37.596;2023-02-20T08:32:54;97565.50;;;-5.03;87.43
51081;BME280;37130;55.670;37.596;2023-02-20T08:35:22;97562.88;;;-5.01;88.00
51081;BME280;37130;55.670;37.596;2023-02-20T08:37:51;97584.06;;;-4.84;87.02
51081;BME280;37130;55.670;37.596;2023-02-20T08:40:19;97555.13;;;-5.01;87.41
51081;BME280;37130;55.670;37.596;2023-02-20T08:42:49;97583.72;;;-4.66;87.05
51081;BME280;37130;55.670;37.596;2023-02-20T08:45:20;97586.69;;;-4.42;86.92
51081;BME280;37130;55.670;37.596;2023-02-20T08:47:49;97589.00;;;-4.30;86.47
51081;BME280;37130;55.670;37.596;2023-02-20T08:50:18;97571.72;;;-4.26;86.68
51081;BME280;37130;55.670;37.596;2023-02-20T08:52:46;97598.84;;;-4.05;85.54
51081;BME280;37130;55.670;37.596;2023-02-20T08:55:14;97579.19;;;-4.14;85.65
51081;BME280;37130;55.670;37.596;2023-02-20T08:57:42;97589.03;;;-3.91;85.48
51081;BME280;37130;55.670;37.596;2023-02-20T09:00:13;97582.69;;;-3.78;86.15
51081;BME280;37130;55.670;37.596;2023-02-20T09:02:41;97572.16;;;-3.70;85.34
51081;BME280;37130;55.670;37.596;2023-02-20T09:05:09;97578.16;;;-3.68;84.70
51081;BME280;37130;55.670;37.596;2023-02-20T09:07:36;97555.06;;;-3.76;84.81
51081;BME280;37130;55.670;37.596;2023-02-20T09:10:04;97576.06;;;-3.52;84.95
51081;BME280;37130;55.670;37.596;2023-02-20T09:12:33;97576.72;;;-3.44;84.04
51081;BME280;37130;55.670;37.596;2023-02-20T09:15:00;97586.63;;;-3.25;83.96
51081;BME280;37130;55.670;37.596;2023-02-20T09:17:30;97584.81;;;-3.22;83.38
51081;BME280;37130;55.670;37.596;2023-02-20T09:19:58;97566.66;;;-3.20;83.13
51081;BME280;37130;55.670;37.596;2023-02-20T09:22:26;97573.84;;;-2.99;83.08
51081;BME280;37130;55.670;37.596;2023-02-20T09:24:56;97510.16;;;-3.37;82.76
51081;BME280;37130;55.670;37.596;2023-02-20T09:27:24;97405.97;;;-3.77;82.87
51081;BME280;37130;55.670;37.596;2023-02-20T09:29:52;97442.88;;;-3.37;82.68
51081;BME280;37130;55.670;37.596;2023-02-20T09:32:19;97590.63;;;-2.48;82.83
51081;BME280;37130;55.670;37.596;2023-02-20T09:34:47;97582.28;;;-2.59;82.46
51081;BME280;37130;55.670;37.596;2023-02-20T09:37:14;97579.75;;;-2.61;82.10
51081;BME280;37130;55.670;37.596;2023-02-20T09:39:42;97592.81;;;-2.64;82.00
51081;BME280;37130;55.670;37.596;2023-02-20T09:42:25;97590.06;;;-2.91;81.98
51081;BME280;37130;55.670;37.596;2023-02-20T09:45:14;97594.06;;;-3.12;82.17
51081;BME280;37130;55.670;37.596;2023-02-20T09:50:54;97547.03;;;-3.63;82.01
51081;BME280;37130;55.670;37.596;2023-02-20T09:55:54;97580.84;;;-3.72;83.47
51081;BME280;37130;55.670;37.596;2023-02-20T10:01:16;97588.34;;;-3.99;81.94
51081;BME280;37130;55.670;37.596;2023-02-20T10:06:25;97589.75;;;-4.25;82.87
51081;BME280;37130;55.670;37.596;2023-02-20T10:08:53;97563.97;;;-4.28;83.66
51081;BME280;37130;55.670;37.596;2023-02-20T10:19:57;97580.00;;;-4.12;82.60
51081;BME280;37130;55.670;37.596;2023-02-20T10:22:35;97499.19;;;-4.59;82.39
51081;BME280;37130;55.670;37.596;2023-02-20T10:25:37;97569.13;;;-4.26;81.67
51081;BME280;37130;55.670;37.596;2023-02-20T10:28:17;97578.25;;;-4.10;82.46
51081;BME280;37130;55.670;37.596;2023-02-20T10:30:49;97469.84;;;-4.55;82.20
51081;BME280;37130;55.670;37.596;2023-02-20T10:33:32;97579.31;;;-3.80;81.98
51081;BME280;37130;55.670;37.596;2023-02-20T10:36:16;97575.81;;;-3.79;81.67
51081;BME280;37130;55.670;37.596;2023-02-20T10:38:51;97576.03;;;-3.88;81.60
51081;BME280;37130;55.670;37.596;2023-02-20T10:41:28;97581.97;;;-4.23;82.57
51081;BME280;37130;55.670;37.596;2023-02-20T10:44:10;97577.41;;;-4.12;83.09
51081;BME280;37130;55.670;37.596;2023-02-20T10:49:40;97550.03;;;-4.19;81.83
51081;BME280;37130;55.670;37.596;2023-02-20T10:52:15;97572.84;;;-3.99;82.15
51081;BME280;37130;55.670;37.596;2023-02-20T10:55:29;97573.56;;;-3.92;81.87
51081;BME280;37130;55.670;37.596;2023-02-20T10:58:15;97574.50;;;-3.97;81.70
51081;BME280;37130;55.670;37.596;2023-02-20T11:01:02;97569.81;;;-4.18;80.69
51081;BME280;37130;55.670;37.596;2023-02-20T11:03:55;97551.81;;;-4.23;81.20
51081;BME280;37130;55.670;37.596;2023-02-20T11:06:33;97578.97;;;-4.03;81.38
51081;BME280;37130;55.670;37.596;2023-02-20T11:09:03;97578.06;;;-4.01;80.97
51081;BME280;37130;55.670;37.596;2023-02-20T11:11:39;97585.84;;;-4.02;81.08
51081;BME280;37130;55.670;37.596;2023-02-20T11:14:15;97576.31;;;-4.00;81.13
51081;BME280;37130;55.670;37.596;2023-02-20T11:16:56;97568.59;;;-4.02;81.29
51081;BME280;37130;55.670;37.596;2023-02-20T11:19:39;97585.22;;;-4.13;80.31
51081;BME280;37130;55.670;37.596;2023-02-20T11:22:08;97573.16;;;-4.14;80.83
51081;BME280;37130;55.670;37.596;2023-02-20T11:24:38;97569.78;;;-4.16;80.96
51081;BME280;37130;55.670;37.596;2023-02-20T11:27:21;97565.25;;;-4.07;80.51
51081;BME280;37130;55.670;37.596;2023-02-20T11:30:03;97576.50;;;-4.09;80.31
51081;BME280;37130;55.670;37.596;2023-02-20T11:32:38;97583.72;;;-4.24;80.07
51081;BME280;37130;55.670;37.596;2023-02-20T11:37:48;97565.88;;;-4.36;81.00
51081;BME280;37130;55.670;37.596;2023-02-20T11:40:30;97585.53;;;-4.29;81.13
51081;BME280;37130;55.670;37.596;2023-02-20T11:45:40;97590.88;;;-4.38;81.62
51081;BME280;37130;55.670;37.596;2023-02-20T11:50:46;97596.13;;;-4.41;81.42
51081;BME280;37130;55.670;37.596;2023-02-20T11:53:19;97597.84;;;-4.40;81.30
51081;BME280;37130;55.670;37.596;2023-02-20T11:55:48;97598.91;;;-4.50;80.66
51081;BME280;37130;55.670;37.596;2023-02-20T11:58:27;97599.28;;;-4.70;80.56
51081;BME280;37130;55.670;37.596;2023-02-20T12:00:55;97594.38;;;-4.84;81.60
51081;BME280;37130;55.670;37.596;2023-02-20T12:03:24;97597.94;;;-4.90;81.19
51081;BME280;37130;55.670;37.596;2023-02-20T12:05:55;97596.41;;;-5.00;81.17
51081;BME280;37130;55.670;37.596;2023-02-20T12:11:06;97598.84;;;-4.92;81.37
51081;BME280;37130;55.670;37.596;2023-02-20T12:13:38;97597.88;;;-4.87;81.18
51081;BME280;37130;55.670;37.596;2023-02-20T12:19:16;97600.28;;;-4.77;81.53
51081;BME280;37130;55.670;37.596;2023-02-20T12:27:45;97502.59;;;-5.44;81.50
51081;BME280;37130;55.670;37.596;2023-02-20T12:30:47;97500.28;;;-5.61;80.93
51081;BME280;37130;55.670;37.596;2023-02-20T12:47:24;97604.72;;;-4.84;81.25
51081;BME280;37130;55.670;37.596;2023-02-20T12:50:18;97531.78;;;-5.42;81.54
51081;BME280;37130;55.670;37.596;2023-02-20T13:01:33;97585.38;;;-5.10;81.31
51081;BME280;37130;55.670;37.596;2023-02-20T13:05:04;97588.03;;;-5.13;81.63
51081;BME280;37130;55.670;37.596;2023-02-20T13:07:27;97600.09;;;-5.16;81.17
51081;BME280;37130;55.670;37.596;2023-02-20T13:12:41;97559.84;;;-5.23;81.26
51081;BME280;37130;55.670;37.596;2023-02-20T13:17:51;97594.81;;;-5.09;80.84
51081;BME280;37130;55.670;37.596;2023-02-20T13:20:26;97587.25;;;-5.18;80.18
51081;BME280;37130;55.670;37.596;2023-02-20T13:23:25;97592.94;;;-5.00;81.55
51081;BME280;37130;55.670;37.596;2023-02-20T13:25:54;97595.38;;;-4.91;80.67
51081;BME280;37130;55.670;37.596;2023-02-20T13:28:39;97553.78;;;-5.22;81.39
51081;BME280;37130;55.670;37.596;2023-02-20T13:31:23;97525.94;;;-5.53;81.16
51081;BME280;37130;55.670;37.596;2023-02-20T13:36:42;97571.13;;;-5.31;81.69
51081;BME280;37130;55.670;37.596;2023-02-20T13:49:56;97603.91;;;-5.37;81.78
51081;BME280;37130;55.670;37.596;2023-02-20T13:52:42;97469.56;;;-6.23;82.01
51081;BME280;37130;55.670;37.596;2023-02-20T13:55:17;97596.22;;;-5.40;82.03
51081;BME280;37130;55.670;37.596;2023-02-20T13:57:50;97603.88;;;-5.36;82.03
51081;BME280;37130;55.670;37.596;2023-02-20T14:02:46;97597.91;;;-5.38;82.23
51081;BME280;37130;55.670;37.596;2023-02-20T14:05:45;97627.94;;;-5.34;82.32
51081;BME280;37130;55.670;37.596;2023-02-20T14:08:29;97571.84;;;-5.74;82.39
51081;BME280;37130;55.670;37.596;2023-02-20T14:11:30;97603.22;;;-5.48;81.88
51081;BME280;37130;55.670;37.596;2023-02-20T14:14:08;97610.13;;;-5.51;82.17
51081;BME280;37130;55.670;37.596;2023-02-20T14:16:40;97609.28;;;-5.51;82.64
51081;BME280;37130;55.670;37.596;2023-02-20T14:19:23;97622.44;;;-5.68;81.81
51081;BME280;37130;55.670;37.596;2023-02-20T14:21:52;97615.75;;;-5.80;81.89
51081;BME280;37130;55.670;37.596;2023-02-20T14:24:25;97620.09;;;-5.85;81.68
51081;BME280;37130;55.670;37.596;2023-02-20T14:26:56;97621.84;;;-5.87;82.55
51081;BME280;37130;55.670;37.596;2023-02-20T14:29:28;97620.28;;;-5.94;81.64
51081;BME280;37130;55.670;37.596;2023-02-20T14:31:59;97624.59;;;-5.96;82.33
51081;BME280;37130;55.670;37.596;2023-02-20T14:34:53;97625.44;;;-5.94;82.68
51081;BME280;37130;55.670;37.596;2023-02-20T14:37:33;97628.88;;;-5.95;81.30
51081;BME280;37130;55.670;37.596;2023-02-20T14:42:41;97436.25;;;-6.95;81.87
51081;BME280;37130;55.670;37.596;2023-02-20T14:45:19;97622.88;;;-5.96;82.48
51081;BME280;37130;55.670;37.596;2023-02-20T14:47:53;97636.69;;;-6.03;82.40
51081;BME280;37130;55.670;37.596;2023-02-20T14:50:30;97612.69;;;-6.05;82.05
51081;BME280;37130;55.670;37.596;2023-02-20T14:53:18;97611.88;;;-6.08;81.60
51081;BME280;37130;55.670;37.596;2023-02-20T14:55:50;97429.69;;;-7.19;81.58
51081;BME280;37130;55.670;37.596;2023-02-20T14:58:20;97624.66;;;-6.01;81.42
51081;BME280;37130;55.670;37.596;2023-02-20T15:00:49;97627.19;;;-5.96;81.65
51081;BME280;37130;55.670;37.596;2023-02-20T15:03:28;97628.16;;;-6.05;82.32
51081;BME280;37130;55.670;37.596;2023-02-20T15:06:01;97553.31;;;-6.59;81.00
51081;BME280;37130;55.670;37.596;2023-02-20T15:08:32;97630.09;;;-6.22;81.48
51081;BME280;37130;55.670;37.596;2023-02-20T15:11:08;97631.91;;;-6.30;81.28
51081;BME280;37130;55.670;37.596;2023-02-20T15:13:40;97613.19;;;-6.45;82.14
51081;BME280;37130;55.670;37.596;2023-02-20T15:16:23;97628.56;;;-6.35;81.67
51081;BME280;37130;55.670;37.596;2023-02-20T15:18:53;97630.25;;;-6.34;81.94
51081;BME280;37130;55.670;37.596;2023-02-20T15:21:37;97572.34;;;-6.72;81.11